Time;durP1;ratioP1;P1;durP2;ratioP2;P2;SDS_P1;SDS_P2;PMS_P1;PMS_P2;Temp;Humidity;BMP_temperature;BMP_pressure;BME280_temperature;BME280_humidity;BME280_pressure;Samples;Min_cycle;Max_cycle;Signal;HPM_P1;HPM_P2
2021/01/28 00:00:01;;;;;;;9.93;7.38;;;2.20;99.90;;;;;;5015563;28;20525;-46
2021/01/28 00:02:26;;;;;;;10.93;7.18;;;2.10;99.90;;;;;;5022846;28;20124;-47
2021/01/28 00:04:52;;;;;;;10.07;6.85;;;2.10;99.90;;;;;;5038318;28;20349;-49
2021/01/28 00:07:17;;;;;;;12.18;7.88;;;2.10;99.90;;;;;;5030063;28;20113;-45
2021/01/28 00:09:43;;;;;;;9.38;6.72;;;2.10;99.90;;;;;;5021474;28;20042;-46
2021/01/28 00:12:08;;;;;;;12.90;8.25;;;2.10;99.90;;;;;;5021951;28;20102;-48
2021/01/28 00:14:34;;;;;;;15.02;10.10;;;2.00;99.90;;;;;;5012161;28;20053;-46
2021/01/28 00:17:00;;;;;;;12.65;7.20;;;2.00;99.90;;;;;;5030201;28;20426;-46
2021/01/28 00:19:26;;;;;;;11.43;7.47;;;2.00;99.90;;;;;;5024116;28;20076;-45
2021/01/28 00:21:52;;;;;;;12.27;7.57;;;2.00;99.90;;;;;;5017216;28;20104;-47
2021/01/28 00:24:17;;;;;;;11.50;7.28;;;2.00;99.90;;;;;;5034595;28;20045;-46
2021/01/28 00:26:43;;;;;;;11.55;6.82;;;2.00;99.90;;;;;;5034368;28;20033;-47
2021/01/28 00:29:08;;;;;;;10.35;6.40;;;2.10;99.90;;;;;;5033340;28;20029;-45
2021/01/28 00:31:33;;;;;;;9.10;6.53;;;2.10;99.90;;;;;;5032595;28;20026;-46
2021/01/28 00:33:59;;;;;;;12.35;6.95;;;2.10;99.90;;;;;;5034377;28;20384;-46
2021/01/28 00:36:25;;;;;;;8.35;5.50;;;2.10;99.90;;;;;;5034128;28;20136;-45
2021/01/28 00:38:51;;;;;;;12.23;7.93;;;2.10;99.90;;;;;;5034270;28;20045;-45
2021/01/28 00:41:16;;;;;;;8.98;6.05;;;2.10;99.90;;;;;;5034119;28;20033;-47
2021/01/28 00:43:42;;;;;;;11.60;7.55;;;2.10;99.90;;;;;;5033243;28;20025;-46
2021/01/28 00:46:07;;;;;;;12.20;7.93;;;2.20;99.90;;;;;;5034132;28;20040;-45
2021/01/28 00:48:33;;;;;;;9.98;7.47;;;2.20;99.90;;;;;;5034284;28;20030;-48
2021/01/28 00:51:00;;;;;;;12.52;7.65;;;2.20;99.90;;;;;;5033622;28;20033;-46
2021/01/28 00:53:26;;;;;;;7.97;5.70;;;2.20;99.90;;;;;;5033741;28;20077;-46
2021/01/28 00:55:52;;;;;;;11.18;6.80;;;2.20;99.90;;;;;;5033495;28;20053;-45
2021/01/28 00:58:20;;;;;;;10.65;6.78;;;2.20;99.90;;;;;;5048343;28;20125;-46
2021/01/28 01:00:47;;;;;;;8.35;6.45;;;2.20;99.90;;;;;;5033244;28;20034;-49
2021/01/28 01:03:15;;;;;;;12.10;7.45;;;2.20;99.90;;;;;;5032278;28;20076;-45
2021/01/28 01:05:42;;;;;;;18.63;9.93;;;2.20;99.90;;;;;;5033706;28;20068;-45
2021/01/28 01:08:11;;;;;;;15.48;10.35;;;2.20;99.90;;;;;;5033362;28;20657;-46
2021/01/28 01:10:41;;;;;;;11.85;7.75;;;2.20;99.90;;;;;;5033670;28;20465;-45
2021/01/28 01:13:13;;;;;;;10.02;6.82;;;2.20;99.90;;;;;;5032328;28;20116;-46
2021/01/28 01:15:38;;;;;;;10.95;7.38;;;2.20;99.90;;;;;;5049004;28;20033;-46
2021/01/28 01:18:08;;;;;;;11.95;7.70;;;2.20;99.90;;;;;;5033460;28;20488;-47
2021/01/28 01:20:34;;;;;;;13.88;8.90;;;2.20;99.90;;;;;;5033456;28;20033;-46
2021/01/28 01:23:00;;;;;;;14.18;9.15;;;2.20;99.90;;;;;;5033457;28;20029;-47
2021/01/28 01:25:26;;;;;;;15.73;9.55;;;2.30;99.90;;;;;;5033138;28;20025;-46
2021/01/28 01:27:51;;;;;;;11.48;7.65;;;2.30;99.90;;;;;;5032644;28;20021;-46
2021/01/28 01:30:19;;;;;;;12.50;7.60;;;2.30;99.90;;;;;;5033372;28;20033;-46
2021/01/28 01:32:45;;;;;;;14.80;8.95;;;2.20;99.90;;;;;;5053272;28;20021;-46
2021/01/28 01:35:12;;;;;;;14.55;8.68;;;2.30;99.90;;;;;;5044798;28;20100;-48
2021/01/28 01:37:38;;;;;;;12.90;8.65;;;2.30;99.90;;;;;;5033078;28;20025;-46
2021/01/28 01:40:06;;;;;;;14.45;9.18;;;2.30;99.90;;;;;;5032753;28;20037;-48
2021/01/28 01:42:32;;;;;;;14.57;10.02;;;2.30;99.90;;;;;;5032552;28;20068;-46
2021/01/28 01:45:00;;;;;;;12.77;8.18;;;2.30;99.90;;;;;;5032871;28;20412;-47
2021/01/28 01:47:43;;;;;;;14.02;9.10;;;2.30;99.90;;;;;;5032928;28;20025;-46
2021/01/28 01:50:28;;;;;;;13.45;8.48;;;2.20;99.90;;;;;;5032882;28;20040;-48
2021/01/28 01:52:57;;;;;;;13.27;9.02;;;2.30;99.90;;;;;;5031668;28;20511;-46
2021/01/28 01:55:23;;;;;;;16.73;9.90;;;2.30;99.90;;;;;;5032851;28;20177;-49
2021/01/28 01:57:49;;;;;;;13.38;8.43;;;2.30;99.90;;;;;;5032064;28;20044;-46
2021/01/28 02:00:18;;;;;;;15.40;10.15;;;2.30;99.90;;;;;;5032686;28;20384;-47
2021/01/28 02:02:47;;;;;;;12.68;8.73;;;2.30;99.90;;;;;;5032773;28;20212;-46
2021/01/28 02:05:21;;;;;;;15.35;9.23;;;2.30;99.90;;;;;;5032511;28;20152;-47
2021/01/28 02:07:48;;;;;;;12.95;8.65;;;2.30;99.90;;;;;;5032476;28;20041;-46
2021/01/28 02:10:15;;;;;;;15.50;8.38;;;2.30;99.90;;;;;;5032517;28;20096;-46
2021/01/28 02:12:41;;;;;;;13.93;9.23;;;2.30;99.90;;;;;;5032335;28;20030;-45
2021/01/28 02:15:07;;;;;;;13.70;8.45;;;2.30;99.90;;;;;;5030385;28;20029;-46
2021/01/28 02:17:36;;;;;;;14.60;9.63;;;2.40;99.90;;;;;;5033052;28;20101;-46
2021/01/28 02:20:32;;;;;;;13.98;8.88;;;2.40;99.90;;;;;;5033201;28;20021;-46
2021/01/28 02:22:57;;;;;;;13.68;8.93;;;2.40;99.90;;;;;;5033021;28;20017;-48
2021/01/28 02:25:26;;;;;;;12.88;8.25;;;2.40;99.90;;;;;;5032823;28;20063;-46
2021/01/28 02:27:57;;;;;;;13.07;8.68;;;2.30;99.90;;;;;;5032130;28;20071;-45
2021/01/28 02:30:26;;;;;;;12.27;8.10;;;2.40;99.90;;;;;;5032992;28;20048;-46
2021/01/28 02:32:52;;;;;;;13.98;9.18;;;2.30;99.90;;;;;;5033123;28;20034;-46
2021/01/28 02:35:22;;;;;;;14.95;9.15;;;2.40;99.90;;;;;;5032976;28;20492;-50
2021/01/28 02:37:48;;;;;;;12.55;8.40;;;2.40;99.90;;;;;;5032821;28;20116;-47
2021/01/28 02:40:17;;;;;;;12.45;7.43;;;2.40;99.90;;;;;;5032850;28;20030;-47
2021/01/28 02:42:42;;;;;;;14.38;8.45;;;2.40;99.90;;;;;;5036771;28;20104;-48
2021/01/28 02:45:09;;;;;;;12.40;7.88;;;2.40;99.90;;;;;;5052364;28;20428;-48
2021/01/28 02:47:35;;;;;;;12.93;7.88;;;2.40;99.90;;;;;;5052492;28;20021;-47
2021/01/28 02:50:00;;;;;;;8.82;6.25;;;2.40;99.90;;;;;;5051303;28;20087;-47
2021/01/28 02:52:26;;;;;;;10.98;7.47;;;2.40;99.90;;;;;;5032474;28;20045;-46
2021/01/28 02:54:53;;;;;;;14.93;8.85;;;2.40;99.90;;;;;;5032781;28;20531;-46
2021/01/28 02:57:20;;;;;;;12.65;7.78;;;2.50;99.90;;;;;;5032598;28;20029;-48
2021/01/28 02:59:46;;;;;;;10.55;6.70;;;2.50;99.90;;;;;;5031824;28;20029;-46
2021/01/28 03:02:16;;;;;;;12.75;7.88;;;2.50;99.90;;;;;;5032454;28;20026;-48
2021/01/28 03:04:41;;;;;;;12.07;8.23;;;2.50;99.90;;;;;;5032766;28;20033;-50
2021/01/28 03:07:09;;;;;;;11.88;6.88;;;2.60;99.90;;;;;;5032549;28;20571;-47
2021/01/28 03:09:35;;;;;;;12.27;8.23;;;2.60;99.90;;;;;;5032310;28;20038;-48
2021/01/28 03:12:01;;;;;;;12.13;7.57;;;2.60;99.90;;;;;;5032753;28;20377;-45
2021/01/28 03:14:27;;;;;;;9.80;6.30;;;2.60;99.90;;;;;;5031640;28;20021;-45
2021/01/28 03:16:52;;;;;;;12.10;7.53;;;2.60;99.90;;;;;;5031171;28;20461;-48
2021/01/28 03:19:22;;;;;;;11.60;7.50;;;2.70;99.90;;;;;;5032369;28;20037;-47
2021/01/28 03:21:47;;;;;;;12.85;7.93;;;2.70;99.90;;;;;;5032350;28;20029;-47
2021/01/28 03:24:14;;;;;;;12.40;7.40;;;2.70;99.90;;;;;;5032131;28;20032;-48
2021/01/28 03:26:39;;;;;;;15.40;9.27;;;2.70;99.90;;;;;;5032391;28;20033;-46
2021/01/28 03:29:06;;;;;;;13.25;8.05;;;2.70;99.90;;;;;;5031484;28;20026;-47
2021/01/28 03:31:32;;;;;;;14.55;8.18;;;2.70;99.90;;;;;;5032264;28;20072;-46
2021/01/28 03:33:58;;;;;;;14.38;8.65;;;2.80;99.90;;;;;;5032425;28;20481;-49
2021/01/28 03:36:23;;;;;;;16.25;9.02;;;2.80;99.90;;;;;;5032174;28;20061;-46
2021/01/28 03:38:49;;;;;;;16.38;9.75;;;2.80;99.90;;;;;;5032070;28;20060;-46
2021/01/28 03:41:14;;;;;;;15.05;9.55;;;2.80;99.90;;;;;;5031863;28;20034;-46
2021/01/28 03:43:40;;;;;;;18.63;10.65;;;2.90;99.90;;;;;;5044179;28;20108;-46
2021/01/28 03:46:05;;;;;;;15.68;9.27;;;2.90;99.90;;;;;;5052103;28;20029;-46
2021/01/28 03:48:31;;;;;;;20.17;11.88;;;2.90;99.90;;;;;;5052039;28;20039;-46
2021/01/28 03:50:56;;;;;;;15.93;9.13;;;2.90;99.90;;;;;;5042746;28;20028;-46
2021/01/28 03:53:22;;;;;;;16.75;9.90;;;2.90;99.90;;;;;;5031861;28;20055;-47
2021/01/28 03:55:47;;;;;;;13.13;8.77;;;2.90;99.90;;;;;;5031971;28;20457;-46
2021/01/28 03:58:13;;;;;;;15.68;9.50;;;2.90;99.90;;;;;;5034095;28;20042;-49
2021/01/28 04:00:38;;;;;;;17.90;9.73;;;3.00;99.90;;;;;;5035988;28;20033;-48
2021/01/28 04:03:05;;;;;;;16.08;9.20;;;3.00;99.90;;;;;;5035942;28;20421;-46
2021/01/28 04:05:31;;;;;;;14.60;8.60;;;3.00;99.90;;;;;;5035835;28;20025;-46
2021/01/28 04:07:57;;;;;;;13.32;8.25;;;3.00;99.90;;;;;;5035692;28;20475;-49
2021/01/28 04:10:27;;;;;;;13.32;8.00;;;3.00;99.90;;;;;;5035489;28;20068;-50
2021/01/28 04:12:52;;;;;;;13.95;8.27;;;3.00;99.90;;;;;;5034784;28;20026;-49
2021/01/28 04:15:19;;;;;;;16.13;9.25;;;3.10;99.90;;;;;;5035716;28;20029;-47
2021/01/28 04:17:44;;;;;;;16.40;10.48;;;3.10;99.90;;;;;;5035561;28;20120;-47
2021/01/28 04:20:11;;;;;;;18.02;10.60;;;3.00;99.90;;;;;;5035647;28;20464;-48
2021/01/28 04:22:36;;;;;;;16.20;8.93;;;3.10;99.90;;;;;;5035221;28;20036;-46
2021/01/28 04:25:04;;;;;;;14.70;8.63;;;3.10;99.90;;;;;;5035429;28;20025;-46
2021/01/28 04:27:30;;;;;;;11.77;7.38;;;3.10;99.90;;;;;;5034382;28;20075;-46
2021/01/28 04:29:55;;;;;;;16.75;10.38;;;3.10;99.90;;;;;;5050899;28;20053;-46
2021/01/28 04:32:21;;;;;;;14.23;8.35;;;3.20;99.90;;;;;;5035309;28;20029;-45
2021/01/28 04:34:46;;;;;;;17.08;10.05;;;3.20;99.90;;;;;;5035391;28;20032;-48
2021/01/28 04:37:12;;;;;;;16.02;8.98;;;3.20;99.90;;;;;;5035132;28;20491;-49
2021/01/28 04:39:41;;;;;;;13.70;8.68;;;3.20;99.90;;;;;;5035037;28;20073;-46
2021/01/28 04:42:17;;;;;;;16.42;9.00;;;3.20;99.90;;;;;;5035106;28;20049;-48
2021/01/28 04:44:43;;;;;;;16.15;9.23;;;3.20;99.90;;;;;;5014555;28;20026;-46
2021/01/28 04:47:18;;;;;;;16.90;10.25;;;3.30;99.90;;;;;;5015315;28;20018;-49
2021/01/28 04:49:56;;;;;;;15.57;9.40;;;3.30;99.90;;;;;;5015246;28;20105;-45
2021/01/28 04:52:23;;;;;;;15.18;9.48;;;3.30;99.90;;;;;;5014962;28;20049;-47
2021/01/28 04:54:54;;;;;;;15.20;9.38;;;3.30;99.90;;;;;;5015028;28;20556;-47
2021/01/28 04:57:20;;;;;;;18.75;10.30;;;3.30;99.90;;;;;;5015084;28;20117;-46
2021/01/28 04:59:49;;;;;;;15.45;9.40;;;3.30;99.90;;;;;;5014123;28;20442;-46
2021/01/28 05:02:19;;;;;;;15.10;9.30;;;3.40;99.90;;;;;;5014806;28;20032;-47
2021/01/28 05:04:56;;;;;;;18.42;10.57;;;3.40;99.90;;;;;;5030194;28;20117;-48
2021/01/28 05:07:32;;;;;;;17.65;10.18;;;3.40;99.90;;;;;;5014819;28;20057;-46
2021/01/28 05:10:07;;;;;;;14.45;9.07;;;3.40;99.90;;;;;;5014055;28;20034;-48
2021/01/28 05:12:33;;;;;;;16.00;8.37;;;3.40;99.90;;;;;;5013520;28;20446;-45
2021/01/28 05:15:16;;;;;;;16.80;10.20;;;3.40;99.90;;;;;;5014770;28;20040;-45
2021/01/28 05:17:54;;;;;;;16.35;9.50;;;3.40;99.90;;;;;;5014680;28;20113;-46
2021/01/28 05:20:22;;;;;;;13.70;9.00;;;3.40;99.90;;;;;;5014671;28;20034;-47
2021/01/28 05:22:58;;;;;;;17.63;9.43;;;3.40;99.90;;;;;;5014494;28;20079;-46
2021/01/28 05:25:26;;;;;;;16.52;9.60;;;3.50;99.90;;;;;;5014515;28;20034;-47
2021/01/28 05:27:53;;;;;;;14.73;8.00;;;3.50;99.90;;;;;;5013559;28;20026;-51
2021/01/28 05:30:43;;;;;;;17.20;9.77;;;3.50;99.90;;;;;;5014367;28;20489;-46
2021/01/28 05:33:37;;;;;;;19.05;11.25;;;3.50;99.90;;;;;;5014324;28;20066;-49
2021/01/28 05:36:21;;;;;;;15.80;9.32;;;3.50;99.90;;;;;;5014545;28;20061;-48
2021/01/28 05:38:50;;;;;;;15.75;7.97;;;3.60;99.90;;;;;;5014222;28;20363;-47
2021/01/28 05:41:27;;;;;;;17.25;8.77;;;3.60;99.90;;;;;;5014094;28;20437;-46
2021/01/28 05:43:54;;;;;;;17.25;9.68;;;3.60;99.90;;;;;;5042297;28;20021;-49
2021/01/28 05:46:30;;;;;;;14.98;8.45;;;3.60;99.90;;;;;;5053951;28;20028;-46
2021/01/28 05:49:04;;;;;;;;;;;3.60;99.90;;;;;;5054396;28;20044;-48
2021/01/28 05:51:56;;;;;;;22.23;8.93;;;3.70;99.90;;;;;;5040013;28;19905;-46
2021/01/28 05:54:26;;;;;;;16.65;9.25;;;3.70;99.90;;;;;;5030703;28;20050;-45
2021/01/28 05:57:09;;;;;;;23.55;12.10;;;3.70;99.90;;;;;;5033629;28;20029;-48
2021/01/28 05:59:40;;;;;;;22.33;10.85;;;3.70;99.90;;;;;;5032683;28;20025;-47
2021/01/28 06:02:40;;;;;;;18.55;9.57;;;3.70;99.90;;;;;;5033636;28;20402;-45
2021/01/28 06:05:49;;;;;;;17.90;8.27;;;3.80;99.90;;;;;;5031707;28;20128;-46
2021/01/28 06:08:38;;;;;;;16.90;9.75;;;3.80;99.90;;;;;;5033023;28;20030;-45
2021/01/28 06:11:18;;;;;;;17.58;9.07;;;3.80;99.90;;;;;;5033433;28;20828;-45
2021/01/28 06:14:19;;;;;;;16.35;10.00;;;3.80;99.90;;;;;;5032327;28;20787;-46
2021/01/28 06:17:03;;;;;;;14.70;8.98;;;3.80;99.90;;;;;;5033189;28;20542;-47
2021/01/28 06:19:49;;;;;;;14.77;8.38;;;3.80;99.90;;;;;;5032952;28;20038;-46
2021/01/28 06:22:42;;;;;;;14.98;8.45;;;3.90;99.90;;;;;;5033284;28;20080;-49
2021/01/28 06:25:40;;;;;;;14.25;8.90;;;3.90;99.90;;;;;;5033396;28;20526;-47
2021/01/28 06:28:36;;;;;;;14.02;8.82;;;3.90;99.90;;;;;;5032210;28;20028;-48
2021/01/28 06:31:32;;;;;;;14.68;8.15;;;3.90;99.90;;;;;;5045718;28;20060;-47
2021/01/28 06:34:21;;;;;;;19.50;9.52;;;3.90;99.90;;;;;;5052352;28;20108;-50
2021/01/28 06:37:00;;;;;;;15.02;8.55;;;4.00;99.90;;;;;;5052739;28;20556;-47
2021/01/28 06:39:35;;;;;;;13.38;7.75;;;4.00;99.90;;;;;;5052552;28;20033;-46
2021/01/28 06:42:25;;;;;;;16.73;8.70;;;4.00;99.90;;;;;;5052463;28;20025;-47
2021/01/28 06:45:10;;;;;;;17.67;9.63;;;4.00;99.90;;;;;;5012708;28;20026;-48
2021/01/28 06:47:43;;;;;;;15.90;9.10;;;4.00;99.90;;;;;;5012826;28;20465;-47
2021/01/28 06:50:52;;;;;;;17.88;9.73;;;4.00;99.90;;;;;;5015275;28;20041;-46
2021/01/28 06:53:26;;;;;;;14.60;8.13;;;4.10;99.90;;;;;;5032410;28;20092;-46
2021/01/28 06:56:37;;;;;;;14.60;9.20;;;4.10;99.90;;;;;;5031570;28;20524;-46
2021/01/28 06:59:34;;;;;;;14.52;8.48;;;4.10;99.90;;;;;;4987086;28;20474;-48
2021/01/28 07:02:04;;;;;;;;;;;4.10;99.90;;;;;;4994999;28;20026;-45
2021/01/28 07:04:38;;;;;;;14.88;8.35;;;4.10;99.90;;;;;;5027247;28;19936;-48
2021/01/28 07:07:43;;;;;;;8.93;5.97;;;4.10;99.90;;;;;;5032457;28;20052;-46
2021/01/28 07:10:28;;;;;;;9.23;5.63;;;4.10;99.90;;;;;;5012106;28;20460;-46
2021/01/28 07:12:54;;;;;;;7.50;4.97;;;4.10;99.90;;;;;;5031267;28;20037;-46
2021/01/28 07:15:21;;;;;;;10.48;4.90;;;4.10;99.90;;;;;;5032385;28;20029;-47
2021/01/28 07:17:58;;;;;;;8.35;4.22;;;4.10;99.90;;;;;;5032041;28;20038;-49
2021/01/28 07:20:56;;;;;;;4.65;2.92;;;4.10;99.90;;;;;;5032146;28;20476;-46
2021/01/28 07:23:32;;;;;;;6.20;3.72;;;4.10;99.90;;;;;;5032317;28;20021;-46
2021/01/28 07:26:18;;;;;;;5.85;3.22;;;4.10;99.90;;;;;;5032295;28;20028;-46
2021/01/28 07:28:46;;;;;;;6.45;3.60;;;4.10;99.90;;;;;;5031025;28;20029;-50
2021/01/28 07:31:20;;;;;;;4.45;3.08;;;4.10;99.90;;;;;;5032197;28;20057;-51
2021/01/28 07:33:58;;;;;;;6.10;3.67;;;4.20;99.90;;;;;;5035960;28;20026;-45
2021/01/28 07:36:23;;;;;;;6.70;4.05;;;4.20;99.90;;;;;;5036387;28;20117;-51
2021/01/28 07:38:56;;;;;;;5.97;3.25;;;4.20;99.90;;;;;;5035640;28;20116;-49
2021/01/28 07:41:26;;;;;;;4.38;2.95;;;4.20;99.90;;;;;;5036091;28;20024;-48
2021/01/28 07:44:13;;;;;;;5.65;2.90;;;4.20;99.90;;;;;;5049160;28;20029;-49
2021/01/28 07:46:41;;;;;;;4.22;2.78;;;4.10;99.90;;;;;;5055724;28;20029;-48
2021/01/28 07:49:27;;;;;;;5.07;3.45;;;4.20;99.90;;;;;;5055673;28;20025;-48
2021/01/28 07:52:02;;;;;;;5.60;3.00;;;4.20;99.90;;;;;;5038713;28;20034;-52
2021/01/28 07:54:27;;;;;;;4.75;2.83;;;4.20;99.90;;;;;;5035782;28;20456;-49
2021/01/28 07:57:07;;;;;;;4.80;3.35;;;4.20;99.90;;;;;;5035887;28;20025;-50
2021/01/28 08:00:04;;;;;;;5.97;3.33;;;4.10;99.90;;;;;;5034491;28;20034;-47
2021/01/28 08:02:34;;;;;;;;;;;4.10;99.90;;;;;;5036251;28;20381;-48
2021/01/28 08:05:08;;;;;;;6.88;4.03;;;4.10;99.90;;;;;;5035720;28;19905;-49
2021/01/28 08:07:36;;;;;;;9.73;5.07;;;4.10;99.90;;;;;;5035596;28;20100;-51
2021/01/28 08:10:26;;;;;;;7.93;4.65;;;4.10;99.90;;;;;;5035406;28;20029;-47
2021/01/28 08:13:02;;;;;;;7.65;4.47;;;4.00;99.90;;;;;;5034573;28;20029;-50
2021/01/28 08:15:45;;;;;;;6.25;3.88;;;4.10;99.90;;;;;;5034057;28;20056;-51
2021/01/28 08:18:28;;;;;;;7.90;4.30;;;4.00;99.90;;;;;;5035418;28;20063;-50
2021/01/28 08:21:18;;;;;;;9.38;4.72;;;4.00;99.90;;;;;;5035062;28;20057;-47
2021/01/28 08:23:43;;;;;;;7.57;4.68;;;4.10;99.90;;;;;;5035165;28;20057;-47
2021/01/28 08:26:22;;;;;;;7.47;4.00;;;4.10;99.90;;;;;;5035548;28;20060;-49
2021/01/28 08:28:48;;;;;;;7.30;3.92;;;4.10;99.90;;;;;;5034218;28;20472;-48
2021/01/28 08:31:23;;;;;;;9.63;5.00;;;4.10;99.90;;;;;;5032787;28;20988;-50
2021/01/28 08:33:56;;;;;;;8.68;4.32;;;4.20;99.90;;;;;;5034914;28;20025;-52
2021/01/28 08:36:33;;;;;;;8.18;4.32;;;4.20;99.90;;;;;;5035204;28;20027;-52
2021/01/28 08:39:22;;;;;;;7.97;4.00;;;4.30;99.90;;;;;;5050326;28;20033;-52
2021/01/28 08:42:00;;;;;;;6.40;3.35;;;4.40;99.90;;;;;;5034789;28;20113;-49
2021/01/28 08:44:25;;;;;;;7.70;4.30;;;4.50;99.90;;;;;;5051715;28;20017;-48
2021/01/28 08:47:16;;;;;;;7.63;4.30;;;4.50;99.90;;;;;;5070074;28;20021;-49
2021/01/28 08:49:58;;;;;;;6.47;3.75;;;4.60;99.90;;;;;;5054675;28;20053;-50
2021/01/28 08:52:24;;;;;;;8.48;4.55;;;4.70;99.90;;;;;;5015068;28;20129;-50
2021/01/28 08:54:50;;;;;;;6.97;4.07;;;4.80;99.90;;;;;;5014746;28;20405;-47
2021/01/28 08:57:19;;;;;;;8.15;4.30;;;4.90;99.90;;;;;;5015202;28;20026;-50
2021/01/28 08:59:48;;;;;;;7.35;4.57;;;4.90;99.90;;;;;;5014489;28;20442;-49
2021/01/28 09:02:18;;;;;;;8.35;4.30;;;5.00;99.90;;;;;;5014914;28;20117;-51
2021/01/28 09:04:52;;;;;;;5.20;3.60;;;5.10;99.90;;;;;;5026877;28;20032;-49
2021/01/28 09:07:55;;;;;;;9.07;4.72;;;5.10;99.90;;;;;;5054423;28;20362;-50
2021/01/28 09:10:37;;;;;;;8.75;4.47;;;5.20;99.90;;;;;;5054562;28;20021;-53
2021/01/28 09:13:32;;;;;;;6.85;3.70;;;5.20;99.90;;;;;;5069209;28;20032;-50
2021/01/28 09:16:15;;;;;;;6.63;3.97;;;5.20;99.90;;;;;;5054171;28;20021;-52
2021/01/28 09:18:43;;;;;;;7.43;4.00;;;5.10;99.90;;;;;;5054345;28;20033;-48
2021/01/28 09:21:18;;;;;;;7.90;4.78;;;5.10;99.90;;;;;;5054212;28;20021;-53
2021/01/28 09:24:27;;;;;;;8.40;4.43;;;5.10;99.90;;;;;;5054385;28;20046;-52
2021/01/28 09:27:17;;;;;;;6.70;3.90;;;5.20;99.90;;;;;;5054267;28;20079;-47
2021/01/28 09:29:45;;;;;;;7.18;4.00;;;5.20;99.90;;;;;;5053766;28;20029;-51
2021/01/28 09:32:23;;;;;;;7.50;4.55;;;5.30;99.90;;;;;;5053993;28;20083;-47
2021/01/28 09:35:09;;;;;;;6.93;4.18;;;5.30;99.90;;;;;;5053902;28;20112;-49
2021/01/28 09:37:37;;;;;;;7.45;4.10;;;5.40;99.90;;;;;;5054127;28;20033;-49
2021/01/28 09:40:19;;;;;;;8.10;4.75;;;5.40;99.90;;;;;;5053740;28;20021;-48
2021/01/28 09:42:46;;;;;;;9.90;5.55;;;5.50;99.90;;;;;;5068405;28;20056;-48
2021/01/28 09:45:21;;;;;;;10.70;4.07;;;5.50;99.90;;;;;;5053853;28;20074;-48
2021/01/28 09:47:58;;;;;;;7.90;4.93;;;5.50;99.90;;;;;;5053702;28;20029;-51
2021/01/28 09:50:25;;;;;;;8.27;4.53;;;5.50;99.90;;;;;;5049015;28;20022;-51
2021/01/28 09:52:51;;;;;;;10.65;4.97;;;5.50;99.90;;;;;;5033648;28;20033;-48
2021/01/28 09:55:22;;;;;;;8.45;4.93;;;5.50;99.90;;;;;;5033299;28;20103;-50
2021/01/28 09:57:49;;;;;;;7.93;4.22;;;5.60;99.90;;;;;;5030466;28;20040;-52
2021/01/28 10:00:19;;;;;;;7.20;4.45;;;5.60;99.90;;;;;;5033511;28;20025;-50
2021/01/28 10:02:56;;;;;;;8.55;4.53;;;5.60;99.90;;;;;;5033419;28;20067;-51
2021/01/28 10:05:25;;;;;;;8.40;4.88;;;5.60;99.90;;;;;;5033560;28;20101;-51
2021/01/28 10:07:51;;;;;;;6.90;4.63;;;5.70;99.90;;;;;;5032439;28;20025;-48
2021/01/28 10:10:21;;;;;;;6.40;3.85;;;5.60;99.90;;;;;;5033571;28;20120;-50
2021/01/28 10:12:48;;;;;;;7.78;4.70;;;5.70;99.90;;;;;;5032730;28;20037;-47
2021/01/28 10:15:14;;;;;;;6.07;3.63;;;5.70;99.90;;;;;;5033157;28;20034;-50
2021/01/28 10:17:42;;;;;;;8.75;4.97;;;5.70;99.90;;;;;;5033543;28;20052;-50
2021/01/28 10:20:08;;;;;;;6.28;3.90;;;5.70;99.90;;;;;;5033047;28;20032;-50
2021/01/28 10:22:39;;;;;;;6.20;3.55;;;5.70;99.90;;;;;;5033449;28;20049;-48
2021/01/28 10:25:07;;;;;;;6.40;4.07;;;5.70;99.90;;;;;;5033052;28;20033;-49
2021/01/28 10:27:33;;;;;;;5.60;3.30;;;5.70;99.90;;;;;;5032461;28;20032;-49
2021/01/28 10:29:58;;;;;;;5.40;3.00;;;5.70;99.90;;;;;;5032854;28;20033;-49
2021/01/28 10:32:24;;;;;;;5.15;3.28;;;5.70;99.90;;;;;;5033059;28;20435;-49
2021/01/28 10:34:49;;;;;;;3.45;2.50;;;5.70;99.90;;;;;;5032985;28;20032;-50
2021/01/28 10:37:17;;;;;;;5.38;3.47;;;5.70;99.90;;;;;;5048278;28;20500;-49
2021/01/28 10:39:43;;;;;;;5.50;2.95;;;5.70;99.90;;;;;;5048297;28;20518;-47
2021/01/28 10:42:15;;;;;;;5.40;2.90;;;5.80;99.90;;;;;;5030558;28;20083;-47
2021/01/28 10:44:40;;;;;;;5.25;3.10;;;5.80;99.90;;;;;;5052284;28;20029;-47
2021/01/28 10:47:06;;;;;;;4.55;2.95;;;5.80;99.90;;;;;;5052542;28;20411;-47
2021/01/28 10:49:31;;;;;;;3.97;2.53;;;5.70;98.00;;;;;;5052620;28;20071;-46
2021/01/28 10:51:57;;;;;;;4.03;3.03;;;5.70;99.70;;;;;;5035124;28;20071;-50
2021/01/28 10:54:23;;;;;;;4.68;2.60;;;5.70;98.70;;;;;;5032713;28;20453;-47
2021/01/28 10:56:48;;;;;;;5.22;3.00;;;5.70;98.70;;;;;;5031418;28;20120;-47
2021/01/28 10:59:14;;;;;;;3.30;2.42;;;5.80;99.30;;;;;;5031423;28;20109;-47
2021/01/28 11:01:39;;;;;;;5.03;2.90;;;5.80;98.70;;;;;;5032690;28;20108;-52
2021/01/28 11:04:05;;;;;;;5.40;3.22;;;5.90;98.40;;;;;;5032476;28;20013;-47
2021/01/28 11:06:30;;;;;;;4.85;3.13;;;5.90;98.60;;;;;;5031762;28;20522;-49
2021/01/28 11:08:58;;;;;;;4.32;2.80;;;5.90;98.30;;;;;;5032600;28;20017;-48
2021/01/28 11:11:24;;;;;;;4.75;3.08;;;6.00;97.30;;;;;;5032412;28;20049;-47
2021/01/28 11:13:54;;;;;;;4.72;3.05;;;5.90;97.10;;;;;;5031527;28;20175;-47
2021/01/28 11:16:23;;;;;;;2.95;2.22;;;5.90;97.20;;;;;;5032289;28;20037;-46
2021/01/28 11:18:50;;;;;;;4.45;3.17;;;5.90;96.60;;;;;;5032423;28;20069;-48
2021/01/28 11:21:16;;;;;;;3.67;2.63;;;5.90;96.90;;;;;;5032193;28;20276;-49
2021/01/28 11:23:41;;;;;;;5.22;2.92;;;5.90;96.70;;;;;;5032566;28;20112;-46
2021/01/28 11:26:07;;;;;;;4.53;2.67;;;5.90;94.70;;;;;;5032162;28;20051;-49
2021/01/28 11:28:32;;;;;;;3.72;2.40;;;5.90;95.00;;;;;;5031609;28;20035;-47
2021/01/28 11:30:58;;;;;;;3.80;2.50;;;5.90;94.70;;;;;;5032288;28;20542;-48
2021/01/28 11:33:23;;;;;;;5.88;2.78;;;5.90;95.30;;;;;;5032438;28;20104;-48
2021/01/28 11:35:49;;;;;;;4.45;2.25;;;5.90;95.10;;;;;;5032235;28;20040;-47
2021/01/28 11:38:14;;;;;;;3.53;2.55;;;5.90;94.90;;;;;;5032292;28;20053;-50
2021/01/28 11:40:40;;;;;;;3.60;2.20;;;6.00;94.90;;;;;;5032094;28;20423;-47
2021/01/28 11:43:06;;;;;;;3.83;2.05;;;6.00;95.00;;;;;;5039162;28;20025;-47
2021/01/28 11:45:35;;;;;;;3.17;2.00;;;6.00;95.40;;;;;;5052121;28;20052;-47
2021/01/28 11:48:02;;;;;;;3.13;2.20;;;6.00;95.20;;;;;;5052217;28;20033;-47
2021/01/28 11:50:28;;;;;;;4.35;2.50;;;5.90;94.60;;;;;;5046744;28;20057;-47
2021/01/28 11:52:54;;;;;;;4.05;2.72;;;5.90;94.60;;;;;;5032179;28;20092;-50
2021/01/28 11:55:22;;;;;;;4.38;2.58;;;5.80;94.40;;;;;;5032047;28;20112;-47
2021/01/28 11:57:47;;;;;;;4.22;2.80;;;5.60;94.20;;;;;;5031372;28;20052;-46
2021/01/28 12:00:16;;;;;;;3.40;2.20;;;5.60;94.50;;;;;;5032001;28;20033;-49
2021/01/28 12:02:42;;;;;;;3.15;2.20;;;5.50;94.60;;;;;;5032013;28;20045;-47
2021/01/28 12:05:10;;;;;;;4.72;2.47;;;5.50;93.90;;;;;;5031777;28;20035;-47
2021/01/28 12:07:36;;;;;;;2.75;1.77;;;5.40;93.80;;;;;;5032038;28;20022;-46
2021/01/28 12:10:04;;;;;;;2.63;1.77;;;5.30;93.50;;;;;;5031773;28;20030;-46
2021/01/28 12:12:29;;;;;;;2.22;1.77;;;5.30;93.50;;;;;;5030148;28;20480;-49
2021/01/28 12:14:55;;;;;;;2.22;1.50;;;5.30;93.40;;;;;;5029548;28;20055;-46
2021/01/28 12:17:20;;;;;;;4.20;1.58;;;5.30;93.90;;;;;;5036215;28;20389;-47
2021/01/28 12:19:46;;;;;;;2.88;1.73;;;5.30;94.00;;;;;;5054657;28;20041;-48
2021/01/28 12:22:11;;;;;;;3.97;1.80;;;5.30;93.80;;;;;;5054104;28;20053;-47
2021/01/28 12:24:37;;;;;;;3.95;1.92;;;5.30;93.00;;;;;;5069015;28;20032;-47
2021/01/28 12:27:02;;;;;;;3.55;1.60;;;5.20;92.90;;;;;;5046975;28;20480;-47
2021/01/28 12:29:28;;;;;;;2.85;1.50;;;5.20;93.10;;;;;;5034643;28;20022;-46
2021/01/28 12:31:53;;;;;;;3.03;1.45;;;5.20;92.80;;;;;;5035944;28;20496;-49
2021/01/28 12:34:20;;;;;;;3.50;1.63;;;5.20;93.20;;;;;;5024023;28;20033;-46
2021/01/28 12:36:46;;;;;;;2.42;1.55;;;5.20;93.00;;;;;;5031738;28;20061;-47
2021/01/28 12:39:12;;;;;;;2.95;1.60;;;5.10;92.80;;;;;;5035149;28;20374;-46
2021/01/28 12:41:38;;;;;;;2.85;1.67;;;5.10;92.70;;;;;;5036914;28;20029;-50
2021/01/28 12:44:04;;;;;;;3.05;2.05;;;5.10;92.80;;;;;;5050224;28;20212;-47
2021/01/28 12:46:29;;;;;;;2.90;2.13;;;5.10;91.90;;;;;;5041301;28;20441;-51
2021/01/28 12:48:55;;;;;;;4.28;1.58;;;5.10;92.50;;;;;;5036201;28;20022;-50
2021/01/28 12:51:21;;;;;;;2.58;1.80;;;5.00;92.70;;;;;;5034936;28;20061;-50
2021/01/28 12:53:46;;;;;;;2.47;1.90;;;5.00;93.00;;;;;;5034732;28;20223;-48
2021/01/28 12:56:12;;;;;;;7.60;2.33;;;5.10;92.80;;;;;;5035971;28;20392;-48
2021/01/28 12:58:38;;;;;;;3.20;1.90;;;5.00;92.80;;;;;;5034107;28;20034;-48
2021/01/28 13:01:03;;;;;;;2.20;1.70;;;5.00;92.80;;;;;;5034199;28;20029;-46
2021/01/28 13:03:29;;;;;;;3.83;1.80;;;5.00;92.70;;;;;;5034256;28;20036;-46
2021/01/28 13:05:55;;;;;;;3.25;1.83;;;5.00;92.70;;;;;;5033513;28;20053;-49
2021/01/28 13:08:21;;;;;;;1.77;1.50;;;5.00;92.80;;;;;;5039891;28;20075;-46
2021/01/28 13:10:47;;;;;;;3.30;2.28;;;4.90;92.50;;;;;;5034602;28;20041;-47
2021/01/28 13:13:12;;;;;;;3.78;2.45;;;4.80;92.70;;;;;;5048522;28;20112;-46